Time;durP1;ratioP1;P1;durP2;ratioP2;P2;SDS_P1;SDS_P2;PMS_P1;PMS_P2;Temp;Humidity;BMP_temperature;BMP_pressure;BME280_temperature;BME280_humidity;BME280_pressure;Samples;Min_cycle;Max_cycle;Signal;HPM_P1;HPM_P2
2022/03/26 00:01:44;;;;;;;39.05;20.20;;;11.10;66.00;;;;;;5023700;28;20585;-74
2022/03/26 00:04:10;;;;;;;37.03;21.33;;;10.90;66.30;;;;;;5026227;28;20053;-74
2022/03/26 00:06:36;;;;;;;38.97;21.65;;;10.80;66.60;;;;;;5026693;28;20029;-74
2022/03/26 00:09:02;;;;;;;37.28;20.45;;;10.70;66.80;;;;;;5025974;28;20068;-74
2022/03/26 00:11:27;;;;;;;32.95;19.42;;;11.10;66.10;;;;;;5026606;28;20095;-74
2022/03/26 00:13:53;;;;;;;36.30;19.65;;;11.10;65.80;;;;;;5026206;28;20040;-74
2022/03/26 00:16:19;;;;;;;39.15;21.23;;;11.10;65.90;;;;;;5026604;28;20033;-74
2022/03/26 00:18:44;;;;;;;35.00;19.02;;;11.30;65.70;;;;;;5026299;28;20038;-75
2022/03/26 00:21:10;;;;;;;33.83;20.45;;;10.90;65.70;;;;;;5026510;28;20095;-74
2022/03/26 00:23:36;;;;;;;34.50;19.50;;;10.80;66.10;;;;;;5026308;28;20055;-74
2022/03/26 00:26:02;;;;;;;33.22;19.67;;;10.60;66.40;;;;;;5026245;28;20550;-74
2022/03/26 00:28:28;;;;;;;33.25;19.75;;;10.50;66.80;;;;;;5026526;28;20416;-74
2022/03/26 00:30:54;;;;;;;37.63;19.83;;;10.40;67.00;;;;;;5026223;28;20088;-74
2022/03/26 00:33:20;;;;;;;36.83;19.40;;;10.40;67.20;;;;;;5025814;28;20102;-74
2022/03/26 00:35:47;;;;;;;36.92;19.40;;;10.30;67.20;;;;;;5026193;28;20030;-74
2022/03/26 00:38:12;;;;;;;34.08;18.50;;;10.20;67.60;;;;;;5026315;28;20136;-74
2022/03/26 00:40:40;;;;;;;36.92;20.38;;;10.20;67.30;;;;;;5025719;28;20175;-74
2022/03/26 00:43:06;;;;;;;36.80;19.83;;;10.20;67.10;;;;;;5026033;28;20521;-74
2022/03/26 00:45:31;;;;;;;36.88;20.48;;;10.40;66.70;;;;;;5025465;28;20124;-74
2022/03/26 00:47:57;;;;;;;35.60;21.17;;;10.40;66.60;;;;;;5025500;28;20034;-74
2022/03/26 00:50:23;;;;;;;33.33;19.85;;;10.50;66.60;;;;;;5025604;28;20116;-74
2022/03/26 00:52:49;;;;;;;42.88;21.98;;;10.40;66.70;;;;;;5026007;28;20034;-74
2022/03/26 00:55:15;;;;;;;38.28;20.88;;;10.20;67.20;;;;;;5026100;28;20034;-74
2022/03/26 00:57:41;;;;;;;35.25;18.05;;;10.10;67.70;;;;;;5029028;28;20388;-74
2022/03/26 01:00:08;;;;;;;35.00;19.92;;;10.00;68.00;;;;;;5030551;28;20458;-74
2022/03/26 01:02:34;;;;;;;35.47;19.65;;;10.10;67.60;;;;;;5030439;28;20080;-73
2022/03/26 01:05:00;;;;;;;31.50;17.95;;;10.20;67.20;;;;;;5030959;28;20030;-73
2022/03/26 01:07:26;;;;;;;37.97;19.90;;;10.50;66.30;;;;;;5030077;28;20029;-73
2022/03/26 01:09:54;;;;;;;40.95;22.20;;;10.80;65.80;;;;;;5030808;28;20029;-73
2022/03/26 01:12:20;;;;;;;40.88;19.40;;;10.70;65.80;;;;;;5030362;28;20030;-74
2022/03/26 01:14:46;;;;;;;38.42;23.00;;;11.00;65.80;;;;;;5030080;28;20025;-73
2022/03/26 01:17:12;;;;;;;37.88;21.77;;;10.90;66.00;;;;;;5030275;28;20021;-73
2022/03/26 01:19:38;;;;;;;36.15;18.83;;;10.90;66.60;;;;;;5030552;28;20037;-74
2022/03/26 01:22:04;;;;;;;35.13;18.75;;;10.50;66.80;;;;;;5030565;28;20092;-74
2022/03/26 01:24:30;;;;;;;38.03;21.75;;;10.30;66.80;;;;;;5030577;28;20462;-74
2022/03/26 01:26:57;;;;;;;32.75;18.80;;;10.10;67.50;;;;;;5030511;28;20057;-74
2022/03/26 01:29:23;;;;;;;31.85;18.42;;;10.20;68.00;;;;;;5030488;28;20112;-74
2022/03/26 01:31:49;;;;;;;31.13;17.75;;;10.00;67.80;;;;;;5030743;28;20113;-74
2022/03/26 01:34:15;;;;;;;33.88;18.98;;;9.80;67.60;;;;;;5030493;28;20116;-74
2022/03/26 01:36:42;;;;;;;32.22;17.05;;;9.80;67.40;;;;;;5029149;28;20980;-74
2022/03/26 01:39:08;;;;;;;29.27;17.02;;;9.70;67.30;;;;;;5030235;28;20044;-73
2022/03/26 01:41:33;;;;;;;34.30;17.73;;;9.60;67.40;;;;;;5030014;28;20128;-73
2022/03/26 01:44:00;;;;;;;31.95;17.75;;;9.50;67.90;;;;;;5030245;28;20112;-74
2022/03/26 01:46:25;;;;;;;33.25;17.40;;;9.50;67.70;;;;;;5030359;28;20036;-74
2022/03/26 01:48:52;;;;;;;32.55;17.38;;;10.00;66.50;;;;;;5030322;28;20116;-74
2022/03/26 01:51:18;;;;;;;35.42;17.77;;;9.80;66.70;;;;;;5029992;28;20572;-74
2022/03/26 01:53:47;;;;;;;30.25;17.38;;;9.50;67.20;;;;;;5029943;28;20034;-74
2022/03/26 01:56:14;;;;;;;30.42;17.02;;;9.40;67.60;;;;;;5030312;28;20057;-73
2022/03/26 01:58:41;;;;;;;30.23;16.92;;;9.50;67.50;;;;;;5030456;28;20061;-73
2022/03/26 02:01:07;;;;;;;29.50;18.02;;;9.40;67.50;;;;;;5032673;28;20384;-73
2022/03/26 02:03:33;;;;;;;34.75;17.90;;;9.40;67.70;;;;;;5033913;28;20056;-74
2022/03/26 02:05:59;;;;;;;33.55;18.30;;;9.50;67.60;;;;;;5033198;28;20087;-73
2022/03/26 02:08:25;;;;;;;29.98;17.92;;;9.40;67.80;;;;;;5029911;28;20037;-74
2022/03/26 02:10:50;;;;;;;38.55;18.42;;;9.50;67.40;;;;;;5028538;28;20041;-74
2022/03/26 02:13:16;;;;;;;34.83;17.95;;;9.50;67.40;;;;;;5029119;28;20108;-74
2022/03/26 02:15:42;;;;;;;33.08;18.10;;;9.50;67.70;;;;;;5028288;28;20121;-74
2022/03/26 02:18:09;;;;;;;32.17;16.85;;;9.30;68.20;;;;;;5028905;28;20037;-74
2022/03/26 02:20:35;;;;;;;32.10;17.60;;;9.40;67.70;;;;;;5028717;28;20053;-74
2022/03/26 02:23:01;;;;;;;30.67;17.35;;;9.10;68.40;;;;;;5028604;28;20033;-73
2022/03/26 02:25:27;;;;;;;28.88;16.73;;;9.00;68.50;;;;;;5028381;28;20039;-74
2022/03/26 02:27:53;;;;;;;33.17;17.85;;;9.10;68.20;;;;;;5028413;28;20142;-74
2022/03/26 02:30:20;;;;;;;35.33;18.48;;;9.10;68.60;;;;;;5028142;28;20123;-74
2022/03/26 02:32:46;;;;;;;35.22;18.25;;;9.20;68.70;;;;;;5028216;28;20464;-74
2022/03/26 02:35:12;;;;;;;32.30;18.48;;;9.00;68.60;;;;;;5028673;28;20039;-74
2022/03/26 02:37:38;;;;;;;34.78;17.40;;;8.80;69.30;;;;;;5027430;28;20025;-74
2022/03/26 02:40:07;;;;;;;31.38;19.35;;;8.80;69.00;;;;;;5028613;28;20142;-74
2022/03/26 02:42:35;;;;;;;30.67;17.15;;;8.70;69.30;;;;;;5028603;28;20140;-74
2022/03/26 02:45:02;;;;;;;34.00;17.95;;;8.70;69.20;;;;;;5028509;28;20033;-74
2022/03/26 02:47:27;;;;;;;32.72;17.48;;;8.60;69.50;;;;;;5027653;28;20043;-75
2022/03/26 02:49:53;;;;;;;31.65;15.82;;;8.60;69.50;;;;;;5027988;28;20425;-74
2022/03/26 02:52:19;;;;;;;35.42;19.13;;;8.50;69.70;;;;;;5027519;28;20041;-74
2022/03/26 02:54:45;;;;;;;32.13;18.20;;;8.50;69.50;;;;;;5027960;28;20589;-74
2022/03/26 02:57:10;;;;;;;30.67;17.42;;;8.50;69.40;;;;;;5027206;28;20051;-74
2022/03/26 02:59:36;;;;;;;32.80;17.67;;;8.60;69.30;;;;;;5028145;28;20033;-74
2022/03/26 03:02:02;;;;;;;32.05;17.10;;;8.70;69.20;;;;;;5027571;28;20371;-74
2022/03/26 03:04:28;;;;;;;34.97;17.80;;;8.60;69.50;;;;;;5027890;28;20033;-75
2022/03/26 03:06:54;;;;;;;35.80;17.92;;;8.80;68.80;;;;;;5027758;28;20040;-74
2022/03/26 03:09:20;;;;;;;36.08;18.95;;;9.00;68.70;;;;;;5027698;28;20025;-74
2022/03/26 03:11:45;;;;;;;33.35;18.77;;;9.30;67.80;;;;;;5026702;28;20017;-74
2022/03/26 03:14:11;;;;;;;34.58;18.67;;;9.50;67.40;;;;;;5027542;28;20026;-74
2022/03/26 03:16:37;;;;;;;34.22;17.40;;;9.30;67.60;;;;;;5027748;28;20132;-74
2022/03/26 03:19:04;;;;;;;31.67;16.38;;;9.00;68.30;;;;;;5027921;28;20041;-74
2022/03/26 03:21:30;;;;;;;33.42;17.30;;;8.60;69.40;;;;;;5027255;28;20043;-75
2022/03/26 03:23:56;;;;;;;31.23;18.13;;;8.60;69.00;;;;;;5026843;28;20037;-75
2022/03/26 03:26:22;;;;;;;33.13;19.98;;;9.20;68.00;;;;;;5027047;28;20092;-73
2022/03/26 03:28:47;;;;;;;32.30;17.48;;;9.20;67.70;;;;;;5027350;28;20024;-73
2022/03/26 03:31:13;;;;;;;34.70;16.95;;;9.10;68.10;;;;;;5026854;28;20034;-74
2022/03/26 03:33:39;;;;;;;32.63;16.48;;;8.80;68.70;;;;;;5027260;28;20094;-74
2022/03/26 03:36:05;;;;;;;35.22;18.17;;;8.80;68.70;;;;;;5027163;28;20116;-73
2022/03/26 03:38:31;;;;;;;32.38;17.25;;;8.60;69.00;;;;;;5027301;28;20504;-73
2022/03/26 03:40:57;;;;;;;38.50;19.90;;;8.20;70.10;;;;;;5026784;28;20129;-73
2022/03/26 03:43:23;;;;;;;33.45;16.50;;;8.30;70.20;;;;;;5027350;28;20100;-74
2022/03/26 03:45:49;;;;;;;30.45;16.65;;;8.30;70.00;;;;;;5026955;28;20029;-73
2022/03/26 03:48:16;;;;;;;31.77;17.55;;;8.30;69.80;;;;;;5026911;28;20029;-73
2022/03/26 03:50:42;;;;;;;35.75;18.13;;;8.60;69.40;;;;;;5026746;28;20026;-73
2022/03/26 03:53:07;;;;;;;34.20;17.83;;;8.20;70.00;;;;;;5026397;28;20029;-73
2022/03/26 03:55:33;;;;;;;36.90;17.15;;;8.50;69.50;;;;;;5026498;28;20116;-74
2022/03/26 03:57:59;;;;;;;30.25;17.15;;;8.90;68.50;;;;;;5028490;28;20077;-73
2022/03/26 04:00:25;;;;;;;31.55;18.13;;;8.80;68.60;;;;;;5026174;28;20470;-75
2022/03/26 04:02:53;;;;;;;29.90;16.33;;;8.60;69.20;;;;;;5026576;28;20049;-75
2022/03/26 04:05:19;;;;;;;29.65;15.80;;;8.30;69.80;;;;;;5026496;28;20546;-74
2022/03/26 04:07:44;;;;;;;28.65;15.27;;;8.20;70.00;;;;;;5026119;28;20037;-75
2022/03/26 04:10:11;;;;;;;31.42;17.55;;;8.30;69.60;;;;;;5026941;28;20068;-75
2022/03/26 04:12:40;;;;;;;32.67;16.67;;;8.50;69.20;;;;;;5026159;28;20021;-75
2022/03/26 04:15:08;;;;;;;36.22;16.83;;;8.40;69.30;;;;;;5026506;28;20460;-75
2022/03/26 04:17:34;;;;;;;29.13;17.75;;;8.40;69.20;;;;;;5026056;28;20376;-73
2022/03/26 04:20:01;;;;;;;29.25;16.65;;;8.30;69.60;;;;;;5026262;28;20443;-73
2022/03/26 04:22:27;;;;;;;38.90;19.02;;;8.70;68.50;;;;;;5027579;28;20416;-73
2022/03/26 04:24:53;;;;;;;30.70;16.67;;;8.50;69.00;;;;;;5029742;28;20167;-73
2022/03/26 04:27:18;;;;;;;28.38;16.25;;;8.50;68.90;;;;;;5029246;28;20372;-73
2022/03/26 04:29:44;;;;;;;31.95;15.77;;;8.70;68.50;;;;;;5029587;28;20112;-73
2022/03/26 04:32:10;;;;;;;31.80;16.30;;;8.60;68.70;;;;;;5029351;28;20037;-73
2022/03/26 04:34:36;;;;;;;27.20;14.95;;;8.30;69.30;;;;;;5029157;28;20473;-73
2022/03/26 04:37:03;;;;;;;29.35;16.33;;;8.00;70.20;;;;;;5029444;28;20064;-73
2022/03/26 04:39:28;;;;;;;34.28;16.67;;;7.90;70.50;;;;;;5029420;28;20029;-73
2022/03/26 04:41:54;;;;;;;32.33;17.63;;;7.90;70.20;;;;;;5029000;28;20589;-73
2022/03/26 04:44:20;;;;;;;29.60;17.10;;;8.10;69.90;;;;;;5028909;28;20036;-73
2022/03/26 04:46:45;;;;;;;33.78;17.20;;;8.30;69.40;;;;;;5029208;28;20029;-73
2022/03/26 04:49:11;;;;;;;32.75;16.75;;;8.50;69.40;;;;;;5028860;28;20114;-73
2022/03/26 04:51:37;;;;;;;27.33;15.48;;;8.10;69.60;;;;;;5029546;28;20480;-73
2022/03/26 04:54:02;;;;;;;28.33;15.43;;;7.90;70.10;;;;;;5028620;28;20037;-73
2022/03/26 04:56:28;;;;;;;32.53;18.20;;;8.20;69.70;;;;;;5028819;28;20123;-73
2022/03/26 04:58:55;;;;;;;29.63;16.20;;;8.00;69.80;;;;;;5026229;28;20030;-73
2022/03/26 05:01:22;;;;;;;34.45;16.40;;;7.90;70.00;;;;;;5026260;28;20041;-73
2022/03/26 05:03:49;;;;;;;29.70;16.92;;;8.20;69.30;;;;;;5025221;28;20456;-73
2022/03/26 05:06:15;;;;;;;29.70;17.02;;;8.10;69.70;;;;;;5025645;28;20030;-73
2022/03/26 05:08:40;;;;;;;29.30;15.82;;;8.30;69.30;;;;;;5026457;28;20033;-73
2022/03/26 05:11:06;;;;;;;28.17;15.32;;;8.20;69.40;;;;;;5026209;28;20128;-73
2022/03/26 05:13:32;;;;;;;34.70;15.25;;;8.10;69.70;;;;;;5025865;28;20041;-74
2022/03/26 05:15:58;;;;;;;29.20;14.57;;;7.80;70.50;;;;;;5025530;28;20108;-73
2022/03/26 05:18:24;;;;;;;28.80;15.50;;;7.80;70.60;;;;;;5025785;28;20039;-73
2022/03/26 05:20:50;;;;;;;25.58;14.60;;;7.80;70.50;;;;;;5025478;28;20103;-73
2022/03/26 05:23:16;;;;;;;25.30;14.98;;;8.30;69.30;;;;;;5025161;28;20029;-73
2022/03/26 05:25:42;;;;;;;32.05;16.65;;;8.20;69.30;;;;;;5025707;28;20065;-73
2022/03/26 05:28:08;;;;;;;25.67;15.13;;;8.00;69.80;;;;;;5025950;28;20239;-73
2022/03/26 05:30:34;;;;;;;31.77;15.30;;;8.20;69.50;;;;;;5025566;28;20488;-73
2022/03/26 05:33:00;;;;;;;28.40;14.80;;;8.30;69.30;;;;;;5026035;28;20444;-73
2022/03/26 05:35:26;;;;;;;28.48;15.57;;;8.00;70.40;;;;;;5027334;28;20034;-73
2022/03/26 05:37:52;;;;;;;30.83;17.63;;;7.90;70.60;;;;;;5029273;28;20079;-73
2022/03/26 05:40:20;;;;;;;33.28;16.25;;;7.90;70.60;;;;;;5029286;28;20037;-73
2022/03/26 05:42:47;;;;;;;29.70;15.40;;;7.90;70.60;;;;;;5029078;28;20030;-73
2022/03/26 05:45:13;;;;;;;24.95;14.98;;;8.10;69.80;;;;;;5029126;28;20050;-73
2022/03/26 05:47:38;;;;;;;29.90;14.55;;;8.20;69.70;;;;;;5029149;28;20044;-73
2022/03/26 05:50:10;;;;;;;26.70;15.10;;;8.30;69.60;;;;;;5029048;28;20072;-73
2022/03/26 05:52:36;;;;;;;27.98;15.10;;;8.20;69.80;;;;;;5028811;28;20087;-73
2022/03/26 05:55:02;;;;;;;24.52;14.45;;;8.00;70.00;;;;;;5029081;28;20095;-73
2022/03/26 05:57:28;;;;;;;26.80;14.43;;;7.90;71.60;;;;;;5029093;28;20059;-73
2022/03/26 05:59:53;;;;;;;28.13;13.70;;;8.00;70.50;;;;;;5028901;28;20033;-73
2022/03/26 06:02:21;;;;;;;35.63;14.18;;;8.20;69.90;;;;;;5028739;28;20143;-73
2022/03/26 06:04:47;;;;;;;30.27;15.40;;;8.20;70.60;;;;;;5028526;28;20072;-73
2022/03/26 06:07:12;;;;;;;28.40;14.93;;;8.10;70.30;;;;;;5028517;28;20032;-73
2022/03/26 06:09:39;;;;;;;29.63;15.30;;;8.20;70.20;;;;;;5028990;28;20042;-73
2022/03/26 06:12:06;;;;;;;23.42;13.05;;;8.20;70.20;;;;;;5028824;28;20456;-73
2022/03/26 06:14:32;;;;;;;28.38;13.88;;;8.60;69.30;;;;;;5028465;28;20029;-73
2022/03/26 06:16:58;;;;;;;25.90;13.90;;;8.60;69.30;;;;;;5028447;28;20443;-73
2022/03/26 06:19:26;;;;;;;24.30;13.68;;;8.70;69.20;;;;;;5028119;28;20034;-74
2022/03/26 06:21:52;;;;;;;25.27;13.43;;;8.60;69.20;;;;;;5028878;28;20263;-73
2022/03/26 06:24:18;;;;;;;27.20;13.70;;;8.90;68.80;;;;;;5026742;28;20033;-72
2022/03/26 06:26:44;;;;;;;24.75;13.95;;;8.50;69.80;;;;;;5028982;28;20040;-73
2022/03/26 06:29:14;;;;;;;25.63;13.90;;;8.40;69.90;;;;;;5028288;28;20037;-73
2022/03/26 06:31:39;;;;;;;23.98;14.52;;;8.50;70.10;;;;;;5028707;28;20037;-73
2022/03/26 06:34:05;;;;;;;24.92;13.95;;;8.50;70.10;;;;;;5028070;28;20108;-73
2022/03/26 06:36:31;;;;;;;27.52;14.40;;;8.20;70.70;;;;;;5028342;28;20095;-73
2022/03/26 06:38:56;;;;;;;21.20;13.52;;;8.20;71.30;;;;;;5028039;28;20038;-73
2022/03/26 06:41:22;;;;;;;24.17;13.80;;;8.70;69.40;;;;;;5028344;28;20042;-73
2022/03/26 06:43:48;;;;;;;25.23;14.65;;;9.00;69.10;;;;;;5027827;28;20150;-73
2022/03/26 06:46:14;;;;;;;32.22;14.52;;;8.90;69.30;;;;;;5028216;28;20036;-73
2022/03/26 06:48:39;;;;;;;26.25;12.65;;;8.70;70.40;;;;;;5031147;28;20052;-73
2022/03/26 06:51:08;;;;;;;23.10;13.40;;;8.20;71.50;;;;;;5030952;28;20037;-73
2022/03/26 06:53:35;;;;;;;26.02;13.38;;;8.30;71.40;;;;;;5030985;28;20057;-73
2022/03/26 06:56:01;;;;;;;21.75;12.52;;;8.00;72.30;;;;;;5030853;28;20053;-73
2022/03/26 06:58:27;;;;;;;21.58;12.38;;;8.60;70.30;;;;;;5031398;28;20364;-73
2022/03/26 07:00:53;;;;;;;34.42;15.43;;;9.00;68.80;;;;;;5031022;28;20068;-73
2022/03/26 07:03:19;;;;;;;27.85;14.70;;;8.70;70.80;;;;;;5030948;28;20049;-73
2022/03/26 07:05:46;;;;;;;25.15;13.43;;;8.20;71.40;;;;;;5030254;28;20029;-73
2022/03/26 07:08:12;;;;;;;22.27;12.65;;;8.40;71.00;;;;;;5030681;28;20026;-73
2022/03/26 07:10:41;;;;;;;23.00;13.20;;;8.80;69.70;;;;;;5030636;28;20033;-73
2022/03/26 07:13:07;;;;;;;22.40;13.10;;;8.80;69.80;;;;;;5031136;28;20033;-73
2022/03/26 07:15:32;;;;;;;22.92;12.75;;;9.20;68.30;;;;;;5030971;28;20033;-73
2022/03/26 07:17:59;;;;;;;22.45;12.38;;;9.40;67.60;;;;;;5030546;28;20032;-73
2022/03/26 07:20:25;;;;;;;24.88;12.85;;;9.40;67.80;;;;;;5030251;28;20053;-73
2022/03/26 07:22:50;;;;;;;23.02;13.10;;;9.40;67.80;;;;;;5030944;28;20094;-73
2022/03/26 07:25:16;;;;;;;20.98;12.55;;;9.40;68.30;;;;;;5030661;28;20029;-73
2022/03/26 07:27:42;;;;;;;21.35;12.60;;;9.50;67.90;;;;;;5030229;28;20037;-73
2022/03/26 07:30:08;;;;;;;22.83;12.70;;;9.50;68.30;;;;;;5030232;28;20032;-73
2022/03/26 07:32:34;;;;;;;26.17;12.90;;;9.50;68.10;;;;;;5030282;28;20492;-73
2022/03/26 07:35:00;;;;;;;22.85;12.27;;;9.50;68.70;;;;;;5030530;28;20044;-73
2022/03/26 07:37:25;;;;;;;25.55;13.20;;;9.50;68.60;;;;;;5030251;28;20039;-73
2022/03/26 07:39:51;;;;;;;22.20;12.57;;;9.50;68.40;;;;;;5030321;28;20036;-72
2022/03/26 07:42:17;;;;;;;27.52;13.00;;;9.50;69.70;;;;;;5029787;28;20152;-73
2022/03/26 07:44:43;;;;;;;22.80;12.90;;;9.70;70.00;;;;;;5030369;28;20379;-73
2022/03/26 07:47:08;;;;;;;19.23;12.43;;;9.70;69.10;;;;;;5030291;28;20037;-72
2022/03/26 07:49:34;;;;;;;20.73;11.98;;;9.80;68.50;;;;;;5030194;28;20025;-73
2022/03/26 07:52:00;;;;;;;34.63;13.88;;;9.90;69.30;;;;;;5030076;28;20029;-73
2022/03/26 07:54:26;;;;;;;23.95;12.55;;;10.00;68.00;;;;;;5029289;28;20033;-73
2022/03/26 07:56:52;;;;;;;24.65;12.48;;;10.10;68.00;;;;;;5030096;28;20037;-73
2022/03/26 07:59:18;;;;;;;21.58;12.10;;;10.00;67.20;;;;;;5029302;28;20079;-73
2022/03/26 08:01:44;;;;;;;21.00;11.43;;;10.00;67.50;;;;;;5029599;28;20383;-73
2022/03/26 08:04:10;;;;;;;19.42;10.38;;;10.20;68.10;;;;;;5029217;28;20064;-73
2022/03/26 08:06:36;;;;;;;23.30;12.05;;;10.30;67.10;;;;;;5029414;28;20033;-72
2022/03/26 08:09:02;;;;;;;21.90;12.55;;;10.30;67.50;;;;;;5029385;28;20045;-73
2022/03/26 08:11:28;;;;;;;24.13;11.95;;;10.30;67.40;;;;;;5029716;28;20041;-73
2022/03/26 08:13:54;;;;;;;20.65;12.20;;;10.30;67.50;;;;;;5029371;28;20171;-73
2022/03/26 08:16:19;;;;;;;22.80;12.32;;;10.40;67.10;;;;;;5029317;28;20057;-73
2022/03/26 08:18:46;;;;;;;29.67;13.63;;;10.40;67.10;;;;;;5029362;28;20044;-73
2022/03/26 08:21:12;;;;;;;37.05;12.85;;;10.40;66.80;;;;;;5029737;28;20376;-73
2022/03/26 08:23:38;;;;;;;25.85;14.48;;;10.50;67.40;;;;;;5029795;28;20029;-73
2022/03/26 08:26:19;;;;;;;19.88;11.93;;;10.60;68.00;;;;;;5028784;28;20030;-73
2022/03/26 08:28:45;;;;;;;25.10;14.60;;;10.80;67.70;;;;;;5029062;28;20139;-73
2022/03/26 08:31:13;;;;;;;19.55;12.77;;;10.90;68.00;;;;;;5029602;28;20547;-73
2022/03/26 08:33:41;;;;;;;22.65;13.27;;;10.90;67.70;;;;;;5029813;28;20044;-73
2022/03/26 08:36:09;;;;;;;26.27;12.43;;;10.90;68.10;;;;;;5028838;28;20091;-73
2022/03/26 08:38:34;;;;;;;20.48;12.57;;;11.00;68.00;;;;;;5029501;28;20037;-73
2022/03/26 08:41:00;;;;;;;22.42;12.70;;;11.00;67.60;;;;;;5028408;28;21197;-73
2022/03/26 08:43:26;;;;;;;21.63;12.25;;;11.10;67.30;;;;;;5029527;28;20033;-73
2022/03/26 08:45:52;;;;;;;22.88;13.43;;;11.20;67.10;;;;;;5029350;28;20586;-73
2022/03/26 08:48:17;;;;;;;23.02;12.88;;;11.30;67.50;;;;;;5029617;28;20032;-73
2022/03/26 08:50:43;;;;;;;21.67;13.63;;;11.50;69.20;;;;;;5029106;28;20037;-73
2022/03/26 08:53:10;;;;;;;22.20;12.70;;;11.60;68.60;;;;;;5028845;28;20122;-73
2022/03/26 08:55:35;;;;;;;24.92;13.55;;;11.40;68.00;;;;;;5028806;28;20475;-73
2022/03/26 08:58:02;;;;;;;25.85;13.57;;;11.50;67.90;;;;;;5029161;28;20088;-73
2022/03/26 09:00:28;;;;;;;22.08;12.40;;;11.60;66.70;;;;;;5029176;28;20099;-73
2022/03/26 09:02:55;;;;;;;21.67;13.57;;;11.70;66.70;;;;;;5028257;28;20049;-73
2022/03/26 09:05:21;;;;;;;23.23;13.13;;;11.70;66.70;;;;;;5028894;28;20497;-73
2022/03/26 09:07:46;;;;;;;21.92;13.43;;;11.90;67.80;;;;;;5028803;28;20060;-73
2022/03/26 09:10:12;;;;;;;24.95;13.27;;;11.80;66.90;;;;;;5030771;28;20037;-73
2022/03/26 09:12:38;;;;;;;24.95;14.13;;;11.80;67.30;;;;;;5032327;28;20431;-73
2022/03/26 09:15:07;;;;;;;23.45;13.68;;;11.80;66.50;;;;;;5032413;28;20026;-73
2022/03/26 09:17:33;;;;;;;27.58;15.20;;;12.10;68.60;;;;;;5031416;28;20480;-73
2022/03/26 09:19:59;;;;;;;24.25;14.48;;;14.80;66.40;;;;;;5030948;28;20060;-73
2022/03/26 09:22:25;;;;;;;24.20;13.65;;;16.90;62.60;;;;;;5032313;28;20472;-73
2022/03/26 09:24:51;;;;;;;25.17;14.30;;;18.50;60.50;;;;;;5032482;28;20112;-73
2022/03/26 09:27:17;;;;;;;29.98;14.73;;;19.20;59.90;;;;;;5032383;28;20036;-73
2022/03/26 09:29:44;;;;;;;26.27;13.93;;;19.30;58.70;;;;;;5032976;28;20037;-73
2022/03/26 09:32:10;;;;;;;26.90;14.20;;;19.10;59.00;;;;;;5032001;28;20037;-73
2022/03/26 09:34:36;;;;;;;29.80;13.88;;;19.50;59.00;;;;;;5032117;28;20079;-73
2022/03/26 09:37:03;;;;;;;52.53;17.00;;;19.90;58.20;;;;;;5031749;28;20044;-73
2022/03/26 09:39:28;;;;;;;32.95;14.98;;;19.70;59.30;;;;;;5032141;28;20385;-73
2022/03/26 09:41:57;;;;;;;24.25;13.23;;;19.60;58.80;;;;;;5032434;28;20044;-73
2022/03/26 09:44:23;;;;;;;36.15;14.32;;;19.90;58.80;;;;;;5032282;28;20128;-73
2022/03/26 09:46:49;;;;;;;29.13;16.20;;;19.70;58.40;;;;;;5032709;28;20394;-73
2022/03/26 09:49:14;;;;;;;24.77;15.13;;;19.90;58.60;;;;;;5031849;28;20053;-73
2022/03/26 09:51:41;;;;;;;25.50;13.52;;;19.30;57.80;;;;;;5031971;28;20083;-73
2022/03/26 09:54:08;;;;;;;20.48;13.27;;;17.80;58.30;;;;;;5031996;28;20056;-73
2022/03/26 09:56:34;;;;;;;22.50;14.65;;;15.60;60.30;;;;;;5031975;28;20037;-73
2022/03/26 09:59:00;;;;;;;24.02;14.50;;;15.20;61.80;;;;;;5031851;28;20124;-73
2022/03/26 10:01:26;;;;;;;23.55;13.60;;;15.00;63.10;;;;;;5031297;28;20044;-73
2022/03/26 10:04:10;;;;;;;25.08;14.98;;;14.70;63.10;;;;;;5031081;28;20073;-73
2022/03/26 10:06:36;;;;;;;28.90;14.82;;;14.60;63.90;;;;;;5031919;28;20112;-73
2022/03/26 10:09:03;;;;;;;25.02;14.27;;;14.90;64.50;;;;;;5031562;28;20121;-73
2022/03/26 10:11:32;;;;;;;21.23;13.65;;;14.90;63.30;;;;;;5031848;28;20037;-73
2022/03/26 10:13:59;;;;;;;28.63;14.63;;;14.80;63.70;;;;;;5030858;28;20044;-73
2022/03/26 10:16:24;;;;;;;23.15;14.50;;;14.80;63.90;;;;;;5031647;28;20232;-73
2022/03/26 10:18:51;;;;;;;23.38;14.95;;;15.00;63.30;;;;;;5031451;28;20116;-73
2022/03/26 10:21:19;;;;;;;22.15;13.98;;;15.00;63.20;;;;;;5031143;28;20099;-73
2022/03/26 10:23:51;;;;;;;23.45;14.90;;;15.00;62.60;;;;;;5029936;28;20101;-73
2022/03/26 10:26:19;;;;;;;26.75;14.88;;;15.10;62.90;;;;;;5031224;28;20416;-73
2022/03/26 10:28:54;;;;;;;21.15;12.95;;;15.20;62.40;;;;;;5031402;28;20033;-73
2022/03/26 10:34:12;;;;;;;22.02;14.10;;;15.60;62.40;;;;;;5031602;28;20087;-73
2022/03/26 10:36:41;;;;;;;22.75;15.20;;;15.40;62.00;;;;;;5031483;28;20040;-73
2022/03/26 10:39:15;;;;;;;20.98;13.35;;;15.50;62.20;;;;;;5029434;28;20044;-75
2022/03/26 10:41:41;;;;;;;24.35;14.80;;;15.70;61.60;;;;;;5028173;28;20041;-73
2022/03/26 10:44:15;;;;;;;26.35;15.13;;;15.90;61.20;;;;;;5029232;28;20033;-73
2022/03/26 10:46:46;;;;;;;21.40;13.93;;;16.00;61.30;;;;;;5031596;28;20040;-73
2022/03/26 10:49:12;;;;;;;26.40;14.73;;;15.80;62.00;;;;;;5031231;28;20044;-73
2022/03/26 10:51:40;;;;;;;25.48;15.70;;;16.00;61.30;;;;;;5030955;28;20043;-74
2022/03/26 10:54:11;;;;;;;23.95;14.82;;;16.00;61.30;;;;;;5031011;28;20037;-74
2022/03/26 10:56:38;;;;;;;24.98;14.75;;;16.00;61.20;;;;;;5030980;28;20033;-73
2022/03/26 10:59:04;;;;;;;23.58;14.45;;;16.20;62.30;;;;;;5030701;28;20065;-74
2022/03/26 11:01:29;;;;;;;24.95;14.65;;;16.20;61.90;;;;;;5030900;28;20037;-73
2022/03/26 11:03:56;;;;;;;26.67;14.65;;;16.30;61.60;;;;;;5029763;28;20053;-73
2022/03/26 11:06:25;;;;;;;23.13;15.52;;;16.50;61.80;;;;;;5030581;28;20034;-74
2022/03/26 11:08:59;;;;;;;25.75;16.75;;;16.70;61.50;;;;;;5030833;28;20040;-74
2022/03/26 11:11:27;;;;;;;24.30;14.43;;;16.50;60.60;;;;;;5029526;28;20037;-74
2022/03/26 11:13:55;;;;;;;24.67;14.30;;;16.40;60.40;;;;;;5027445;28;20037;-74
2022/03/26 11:16:39;;;;;;;26.42;14.60;;;16.60;60.50;;;;;;5026646;28;20037;-73
2022/03/26 11:19:26;;;;;;;23.20;14.73;;;16.90;61.60;;;;;;5027568;28;20037;-74
2022/03/26 11:22:15;;;;;;;21.70;12.88;;;17.10;60.30;;;;;;5028133;28;20045;-74
2022/03/26 11:25:00;;;;;;;21.90;13.80;;;17.00;59.90;;;;;;5023972;28;20056;-73
2022/03/26 11:27:47;;;;;;;27.73;15.98;;;17.20;58.90;;;;;;5026943;28;20449;-73
2022/03/26 11:30:13;;;;;;;26.27;13.93;;;17.40;60.40;;;;;;5027201;28;20484;-74
2022/03/26 11:32:45;;;;;;;26.25;14.23;;;17.50;59.10;;;;;;5026812;28;20107;-74
2022/03/26 11:35:14;;;;;;;24.50;14.40;;;17.70;59.60;;;;;;5027475;28;20037;-74
2022/03/26 11:37:53;;;;;;;25.77;14.60;;;17.80;59.60;;;;;;5027274;28;20041;-74
2022/03/26 11:40:45;;;;;;;23.15;13.75;;;17.90;60.80;;;;;;5026972;28;20033;-74
2022/03/26 11:43:12;;;;;;;29.35;15.65;;;17.90;60.50;;;;;;5024850;28;20041;-73
2022/03/26 11:51:20;;;;;;;23.35;13.85;;;17.90;58.60;;;;;;5026839;28;20052;-74
2022/03/26 11:53:48;;;;;;;25.20;15.10;;;17.90;59.00;;;;;;5026823;28;20037;-74
2022/03/26 11:56:25;;;;;;;23.10;14.88;;;18.00;58.50;;;;;;5026702;28;20038;-73
2022/03/26 11:59:17;;;;;;;24.15;15.25;;;18.20;58.20;;;;;;5026768;28;20039;-74
2022/03/26 12:01:47;;;;;;;25.45;14.50;;;18.40;58.50;;;;;;5020880;28;20053;-74
2022/03/26 12:04:16;;;;;;;21.15;14.10;;;18.30;56.50;;;;;;5025703;28;20045;-73
2022/03/26 12:06:56;;;;;;;22.75;12.68;;;18.40;58.10;;;;;;5026408;28;20035;-74
2022/03/26 12:09:35;;;;;;;23.75;14.27;;;18.70;57.60;;;;;;5026637;28;20032;-75
2022/03/26 12:12:08;;;;;;;24.10;14.88;;;18.80;58.00;;;;;;5026930;28;20022;-74
2022/03/26 12:15:05;;;;;;;22.23;13.93;;;18.90;56.80;;;;;;5025531;28;20153;-74
2022/03/26 12:17:53;;;;;;;23.92;13.82;;;19.20;57.40;;;;;;5026263;28;20036;-74
2022/03/26 12:20:23;;;;;;;21.33;14.80;;;19.30;56.20;;;;;;5026646;28;20372;-74
2022/03/26 12:23:13;;;;;;;25.42;15.02;;;19.30;57.40;;;;;;5026456;28;20040;-74
2022/03/26 12:25:49;;;;;;;25.30;14.02;;;19.30;57.00;;;;;;5026796;28;20026;-74
2022/03/26 12:28:36;;;;;;;21.25;14.07;;;19.20;56.30;;;;;;5026215;28;20026;-74
2022/03/26 12:31:11;;;;;;;25.92;13.00;;;19.40;55.30;;;;;;5025675;28;20614;-74
2022/03/26 12:33:52;;;;;;;22.42;12.95;;;19.60;55.70;;;;;;5026615;28;20070;-74
2022/03/26 12:36:20;;;;;;;20.67;13.30;;;19.40;54.50;;;;;;5026113;28;20112;-74
2022/03/26 12:38:53;;;;;;;21.50;12.68;;;19.50;55.60;;;;;;5025799;28;20039;-73
2022/03/26 12:41:19;;;;;;;22.20;12.82;;;19.60;54.60;;;;;;5026153;28;20045;-74